Time;durP1;ratioP1;P1;durP2;ratioP2;P2;SDS_P1;SDS_P2;PMS_P1;PMS_P2;Temp;Humidity;BMP_temperature;BMP_pressure;BME280_temperature;BME280_humidity;BME280_pressure;Samples;Min_cycle;Max_cycle;Signal;HPM_P1;HPM_P2
2023/02/01 00:04:33;;;;;;;9.60;5.00;;;;;;;2.07;100.00;98412.45;271122;1272;22247;-90
2023/02/01 00:10:34;;;;;;;7.90;4.30;;;;;;;2.10;100.00;98408.38;272144;1272;22349;-90
2023/02/01 00:16:36;;;;;;;6.40;4.20;;;;;;;2.15;100.00;98411.33;269403;1272;23385;-90
2023/02/01 00:22:38;;;;;;;11.20;5.40;;;;;;;2.15;100.00;98397.85;270108;1273;22576;-90
2023/02/01 00:28:39;;;;;;;11.60;5.60;;;;;;;2.14;100.00;98385.66;269568;1268;22540;-89
2023/02/01 00:34:41;;;;;;;10.40;6.00;;;;;;;2.11;100.00;98383.80;269161;1272;22576;-89
2023/02/01 00:40:43;;;;;;;10.00;5.80;;;;;;;2.11;100.00;98373.55;269362;1273;22223;-90
2023/02/01 00:46:45;;;;;;;9.50;5.60;;;;;;;2.08;100.00;98365.42;271343;1272;22555;-89
2023/02/01 00:52:46;;;;;;;9.20;4.40;;;;;;;2.03;100.00;98367.79;269846;1273;23659;-90
2023/02/01 00:58:49;;;;;;;8.10;5.10;;;;;;;1.96;100.00;98373.71;269097;1257;22525;-89
2023/02/01 01:04:51;;;;;;;12.40;5.90;;;;;;;1.89;100.00;98368.63;268493;1272;22845;-90
2023/02/01 01:10:53;;;;;;;10.20;5.80;;;;;;;1.84;100.00;98366.04;269787;1272;22530;-89
2023/02/01 01:16:55;;;;;;;12.10;5.90;;;;;;;1.84;100.00;98369.23;270529;1272;22393;-88
2023/02/01 01:22:56;;;;;;;7.90;4.50;;;;;;;1.92;100.00;98372.91;271518;1272;22583;-89
2023/02/01 01:28:59;;;;;;;7.80;4.00;;;;;;;2.05;100.00;98365.25;272250;1264;22490;-89
2023/02/01 01:35:00;;;;;;;6.20;3.90;;;;;;;2.16;100.00;98355.66;269599;1257;22565;-91
2023/02/01 01:41:02;;;;;;;9.10;4.30;;;;;;;2.24;100.00;98363.66;270716;1273;22706;-90
2023/02/01 01:47:04;;;;;;;9.50;3.30;;;;;;;2.37;100.00;98395.81;270054;1272;22273;-90
2023/02/01 01:53:08;;;;;;;8.00;3.90;;;;;;;2.44;100.00;98425.56;272782;1272;22355;-91
2023/02/01 01:59:11;;;;;;;8.10;3.80;;;;;;;2.40;100.00;98429.17;272777;1272;22344;-89
2023/02/01 02:05:13;;;;;;;4.90;3.60;;;;;;;2.27;100.00;98424.73;272660;1270;22343;-88
2023/02/01 02:11:17;;;;;;;7.90;3.00;;;;;;;2.17;100.00;98420.90;272851;1272;22211;-89
2023/02/01 02:17:49;;;;;;;8.50;2.90;;;;;;;2.07;100.00;98429.95;272889;1272;22203;-91
2023/02/01 02:24:34;;;;;;;6.50;2.20;;;;;;;1.91;100.00;98441.80;273033;1272;22345;-88
2023/02/01 02:30:49;;;;;;;6.80;2.10;;;;;;;1.77;100.00;98475.38;272647;1272;22369;-90
2023/02/01 02:37:10;;;;;;;5.40;2.00;;;;;;;1.72;100.00;98455.90;272670;1269;22567;-89
2023/02/01 03:08:58;;;;;;;5.30;1.30;;;;;;;1.20;100.00;98481.58;272371;1272;22376;-91
2023/02/01 03:15:07;;;;;;;4.90;1.40;;;;;;;1.14;100.00;98484.50;272663;1272;22405;-91
2023/02/01 03:21:13;;;;;;;8.80;1.50;;;;;;;1.11;100.00;98487.71;272854;1272;22286;-91
2023/02/01 03:27:35;;;;;;;;;;;;;;;1.06;100.00;98498.09;272849;1272;22522;-90
2023/02/01 03:33:37;;;;;;;6.00;1.80;;;;;;;1.01;100.00;98507.24;272838;1272;22318;-89
2023/02/01 03:39:52;;;;;;;9.50;2.20;;;;;;;1.00;100.00;98508.29;272972;1257;22367;-91
2023/02/01 03:45:59;;;;;;;6.90;1.90;;;;;;;1.02;100.00;98509.52;272822;1272;22332;-91
2023/02/01 03:52:03;;;;;;;9.40;2.60;;;;;;;1.02;100.00;98515.29;272742;1272;22928;-90
2023/02/01 03:58:12;;;;;;;8.40;2.40;;;;;;;1.02;100.00;98522.46;272704;1272;22364;-90
2023/02/01 04:04:19;;;;;;;9.40;2.40;;;;;;;1.00;100.00;98517.84;272828;1272;23559;-91
2023/02/01 04:10:21;;;;;;;7.20;2.70;;;;;;;0.99;100.00;98516.50;272868;1271;22423;-91
2023/02/01 04:16:23;;;;;;;7.70;2.50;;;;;;;0.99;100.00;98505.09;271675;1272;22564;-89
2023/02/01 04:22:24;;;;;;;8.10;2.70;;;;;;;0.96;100.00;98509.61;268964;1272;22570;-90
2023/02/01 04:28:27;;;;;;;8.00;2.40;;;;;;;0.97;100.00;98517.40;270980;1273;22336;-88
2023/02/01 04:34:28;;;;;;;8.80;2.70;;;;;;;0.98;100.00;98518.44;272099;1272;23300;-89
2023/02/01 04:40:30;;;;;;;9.50;2.40;;;;;;;0.93;100.00;98521.03;269794;1272;22597;-90
2023/02/01 04:46:32;;;;;;;8.50;2.70;;;;;;;0.89;100.00;98522.09;268879;1272;22662;-90
2023/02/01 04:52:34;;;;;;;9.40;3.10;;;;;;;0.86;100.00;98523.98;269487;1272;24222;-90
2023/02/01 04:58:36;;;;;;;8.40;3.10;;;;;;;0.82;100.00;98526.88;269474;1272;23191;-89
2023/02/01 05:04:40;;;;;;;8.90;2.50;;;;;;;0.79;100.00;98519.89;271035;1272;22322;-92
2023/02/01 05:10:42;;;;;;;10.00;4.00;;;;;;;0.76;100.00;98525.53;272549;1261;22413;-91
2023/02/01 05:16:44;;;;;;;9.40;3.60;;;;;;;0.74;100.00;98517.52;272766;1272;22374;-91
2023/02/01 05:22:46;;;;;;;10.50;4.00;;;;;;;0.69;100.00;98520.11;272671;1272;23424;-91
2023/02/01 05:28:51;;;;;;;11.60;5.50;;;;;;;0.67;100.00;98510.48;271731;1272;22597;-92
2023/02/01 05:34:53;;;;;;;9.70;4.90;;;;;;;0.66;100.00;98516.82;271047;1272;23287;-91
2023/02/01 05:40:56;;;;;;;8.90;3.60;;;;;;;0.68;100.00;98524.52;272236;1272;25446;-91
2023/02/01 05:46:58;;;;;;;12.30;5.30;;;;;;;0.72;100.00;98514.42;270957;1272;22636;-91
2023/02/01 05:53:00;;;;;;;13.80;6.10;;;;;;;0.76;100.00;98509.23;269288;1272;26330;-90
2023/02/01 05:59:02;;;;;;;18.20;6.70;;;;;;;0.82;100.00;98503.71;270370;1272;24244;-92
2023/02/01 06:05:04;;;;;;;15.90;5.90;;;;;;;0.93;100.00;98500.45;268550;1272;22541;-91
2023/02/01 06:11:06;;;;;;;18.50;5.30;;;;;;;1.07;100.00;98497.54;269352;1272;22617;-89
2023/02/01 06:17:08;;;;;;;12.00;5.00;;;;;;;1.19;100.00;98498.56;269253;1272;22593;-91
2023/02/01 06:23:10;;;;;;;12.50;4.20;;;;;;;1.31;100.00;98491.27;271089;1263;22570;-89
2023/02/01 06:29:12;;;;;;;18.40;4.40;;;;;;;1.43;100.00;98491.34;270841;1272;22543;-91
2023/02/01 06:35:15;;;;;;;13.70;4.20;;;;;;;1.53;100.00;98490.57;271424;1272;22337;-91
2023/02/01 06:41:20;;;;;;;11.70;3.30;;;;;;;1.62;100.00;98492.24;272871;1272;22226;-92
2023/02/01 06:47:22;;;;;;;13.30;3.50;;;;;;;1.74;100.00;98493.23;272724;1271;23140;-92
2023/02/01 06:53:24;;;;;;;15.70;3.60;;;;;;;1.86;100.00;98487.50;272128;1264;22327;-91
2023/02/01 06:59:26;;;;;;;10.70;4.00;;;;;;;1.97;100.00;98482.65;270632;1272;23179;-91
2023/02/01 07:05:30;;;;;;;13.20;3.40;;;;;;;2.05;100.00;98475.15;272361;1272;22554;-91
2023/02/01 07:11:32;;;;;;;18.80;4.10;;;;;;;2.13;100.00;98478.38;269758;1271;23978;-91
2023/02/01 07:17:34;;;;;;;11.70;4.20;;;;;;;2.16;100.00;98475.88;269093;1272;22548;-90
2023/02/01 07:23:35;;;;;;;11.30;3.60;;;;;;;2.20;100.00;98466.91;269285;1272;23160;-89
2023/02/01 07:29:37;;;;;;;14.30;3.40;;;;;;;2.24;100.00;98465.44;272126;1272;22504;-90
2023/02/01 07:35:39;;;;;;;10.80;3.50;;;;;;;2.32;100.00;98458.84;272760;1272;22427;-90
2023/02/01 07:41:41;;;;;;;11.00;4.20;;;;;;;2.42;100.00;98455.56;272893;1268;22330;-91
2023/02/01 07:47:43;;;;;;;12.50;4.10;;;;;;;2.51;100.00;98455.96;272724;1272;22607;-90
2023/02/01 07:53:45;;;;;;;12.40;4.00;;;;;;;2.59;100.00;98457.61;268467;1272;24271;-88
2023/02/01 08:06:14;;;;;;;11.80;4.80;;;;;;;2.76;100.00;98450.29;268811;1272;22528;-90
2023/02/01 08:12:16;;;;;;;14.30;4.40;;;;;;;2.87;100.00;98447.64;269130;1272;22576;-91
2023/02/01 08:18:18;;;;;;;10.90;3.40;;;;;;;2.98;100.00;98446.63;270827;1272;155277;-89
2023/02/01 08:24:21;;;;;;;14.00;3.30;;;;;;;3.13;100.00;98449.33;268891;1267;22961;-89
2023/02/01 08:30:22;;;;;;;20.90;5.90;;;;;;;3.21;100.00;98453.52;270280;1272;22614;-90
2023/02/01 08:36:25;;;;;;;14.60;4.10;;;;;;;3.25;100.00;98456.05;271290;1272;23946;-90
2023/02/01 08:48:48;;;;;;;9.80;3.80;;;;;;;3.36;100.00;98464.70;270106;1265;23110;-89
2023/02/01 08:54:51;;;;;;;9.90;3.70;;;;;;;3.43;100.00;98465.80;270508;1272;22175;-91
2023/02/01 09:00:52;;;;;;;11.70;3.90;;;;;;;3.44;100.00;98469.77;271779;1272;22320;-90
2023/02/01 09:06:57;;;;;;;10.60;3.30;;;;;;;3.44;100.00;98465.02;272710;1272;22315;-90
2023/02/01 09:13:02;;;;;;;13.20;3.80;;;;;;;3.45;100.00;98455.88;272980;1272;22335;-91
2023/02/01 09:19:04;;;;;;;11.50;3.50;;;;;;;3.51;100.00;98447.16;272848;1272;22512;-91
2023/02/01 09:25:07;;;;;;;18.30;4.30;;;;;;;3.62;100.00;98442.56;273014;1272;22329;-92
2023/02/01 09:31:09;;;;;;;16.30;4.50;;;;;;;3.78;100.00;98436.89;272543;1272;22339;-92
2023/02/01 09:37:10;;;;;;;12.60;3.20;;;;;;;3.89;100.00;98429.65;272674;1272;22529;-91
2023/02/01 09:43:41;;;;;;;12.30;4.30;;;;;;;3.99;100.00;98431.52;272877;1271;22457;-93
2023/02/01 09:50:03;;;;;;;12.10;3.60;;;;;;;4.05;98.86;98437.83;271070;1272;22569;-92
2023/02/01 09:56:12;;;;;;;15.60;4.20;;;;;;;4.16;98.43;98436.67;270791;1272;22345;-90
2023/02/01 10:02:20;;;;;;;11.90;3.00;;;;;;;4.24;98.49;98437.50;272710;1270;22343;-89
2023/02/01 10:08:56;;;;;;;12.60;3.30;;;;;;;4.25;98.59;98434.91;269811;1272;23533;-91
2023/02/01 10:15:19;;;;;;;11.20;3.70;;;;;;;4.23;98.55;98435.01;271417;1272;22993;-93
2023/02/01 10:21:38;;;;;;;12.30;4.70;;;;;;;4.24;98.50;98432.08;270397;1272;25240;-91
2023/02/01 10:27:41;;;;;;;9.60;3.40;;;;;;;4.25;98.26;98434.36;272488;1272;22345;-89
2023/02/01 10:33:47;;;;;;;18.40;5.00;;;;;;;4.20;98.57;98430.20;270761;1262;22538;-88
2023/02/01 10:39:49;;;;;;;14.40;4.20;;;;;;;4.21;98.53;98429.90;268884;1272;23491;-89
2023/02/01 10:45:52;;;;;;;16.70;4.90;;;;;;;4.20;98.79;98424.07;269415;1272;22587;-92
2023/02/01 10:52:06;;;;;;;10.00;4.20;;;;;;;4.35;99.13;98421.91;272054;1272;22557;-91
2023/02/01 10:58:18;;;;;;;12.30;4.60;;;;;;;4.50;99.12;98419.67;271135;1272;22174;-90
2023/02/01 11:04:20;;;;;;;9.90;5.20;;;;;;;4.47;98.72;98419.54;273003;1272;22462;-89
2023/02/01 11:10:41;;;;;;;13.80;4.70;;;;;;;4.47;98.65;98409.39;272778;1272;22217;-89
2023/02/01 11:16:54;;;;;;;13.30;4.60;;;;;;;4.62;99.19;98403.88;272075;1272;22285;-90
2023/02/01 11:22:58;;;;;;;14.10;4.70;;;;;;;4.75;98.91;98396.45;272410;1272;22562;-91
2023/02/01 11:29:04;;;;;;;13.10;4.40;;;;;;;4.73;98.33;98398.87;270678;1272;22482;-90
2023/02/01 11:35:06;;;;;;;17.50;4.70;;;;;;;4.59;98.04;98397.23;272992;1271;23093;-91
2023/02/01 11:41:23;;;;;;;12.50;3.80;;;;;;;4.42;97.96;98390.22;271937;1272;22761;-90
2023/02/01 11:47:31;;;;;;;11.50;5.10;;;;;;;4.27;98.03;98391.68;271083;1272;22529;-91
2023/02/01 11:53:39;;;;;;;12.50;5.50;;;;;;;4.13;98.46;98390.36;270964;1271;22531;-89
2023/02/01 12:00:00;;;;;;;16.30;5.80;;;;;;;4.15;99.13;98380.98;272559;1272;22546;-92
2023/02/01 12:06:13;;;;;;;18.20;6.20;;;;;;;4.24;99.55;98365.98;272584;1271;22370;-92
2023/02/01 12:12:52;;;;;;;13.50;5.40;;;;;;;4.38;99.53;98354.79;272623;1272;23154;-91
2023/02/01 12:19:15;;;;;;;11.80;6.30;;;;;;;4.47;99.17;98348.52;269467;1272;22552;-91
2023/02/01 12:25:32;;;;;;;13.50;5.10;;;;;;;4.44;98.46;98345.12;271838;1272;22229;-88
2023/02/01 12:32:01;;;;;;;19.00;6.00;;;;;;;4.26;97.88;98340.80;272713;1272;22321;-90
2023/02/01 12:38:23;;;;;;;8.00;4.10;;;;;;;4.10;97.83;98342.85;269252;1272;22557;-91
2023/02/01 12:44:46;;;;;;;13.40;5.40;;;;;;;3.94;97.98;98340.40;268959;1272;22964;-89
2023/02/01 12:50:54;;;;;;;9.00;5.10;;;;;;;3.85;98.50;98340.40;269282;1272;23219;-92
2023/02/01 12:57:02;;;;;;;11.70;5.40;;;;;;;3.89;99.04;98328.45;268953;1272;26145;-93
2023/02/01 13:03:37;;;;;;;15.40;5.80;;;;;;;3.88;98.70;98319.14;269134;1272;24208;-92
2023/02/01 13:09:45;;;;;;;12.30;5.80;;;;;;;3.90;98.69;98312.30;269809;1272;23397;-92
2023/02/01 13:16:13;;;;;;;11.30;5.00;;;;;;;3.96;98.62;98303.34;270095;1272;23514;-92
2023/02/01 13:22:34;;;;;;;17.50;5.90;;;;;;;3.95;98.47;98301.05;269978;1272;22579;-91
2023/02/01 13:28:52;;;;;;;11.60;5.60;;;;;;;3.95;98.44;98294.24;272719;1272;22196;-92
2023/02/01 13:35:41;;;;;;;9.80;4.80;;;;;;;4.09;98.54;98284.39;271033;1272;22663;-91
2023/02/01 13:41:55;;;;;;;14.70;5.00;;;;;;;4.25;98.39;98281.93;272644;1271;22514;-91
2023/02/01 13:48:00;;;;;;;11.90;4.90;;;;;;;4.29;98.19;98282.95;272048;1272;22628;-92
2023/02/01 13:54:03;;;;;;;13.80;5.10;;;;;;;4.19;98.08;98282.10;272442;1272;22332;-93
2023/02/01 14:00:32;;;;;;;10.40;4.70;;;;;;;4.12;97.95;98280.23;270231;1272;24238;-90
2023/02/01 14:06:39;;;;;;;11.80;3.90;;;;;;;4.10;97.61;98272.65;271284;1271;23218;-90
2023/02/01 14:12:43;;;;;;;;;;;;;;;4.09;97.17;98268.06;270645;1272;22479;-92
2023/02/01 14:18:46;;;;;;;10.40;4.20;;;;;;;4.07;96.72;98265.47;272546;1272;22379;-91
2023/02/01 14:24:53;;;;;;;10.30;4.10;;;;;;;4.03;96.59;98259.63;272720;1272;22234;-90
2023/02/01 14:30:57;;;;;;;7.60;3.70;;;;;;;3.99;96.54;98260.56;272148;1272;22548;-90
2023/02/01 14:37:03;;;;;;;8.00;3.80;;;;;;;3.94;96.60;98261.90;269490;1273;22722;-90
2023/02/01 14:43:07;;;;;;;8.40;4.40;;;;;;;3.89;96.77;98254.48;269197;1272;25381;-89
2023/02/01 14:49:10;;;;;;;10.50;3.80;;;;;;;3.80;96.88;98248.85;269101;1272;26620;-88
2023/02/01 14:55:43;;;;;;;7.60;3.00;;;;;;;3.69;96.95;98261.63;268672;1272;24226;-90
2023/02/01 15:01:50;;;;;;;8.00;3.40;;;;;;;3.47;97.47;98267.98;268921;1272;25394;-91
2023/02/01 15:07:53;;;;;;;8.50;4.10;;;;;;;3.26;98.36;98270.75;269125;1272;24506;-89
2023/02/01 15:13:56;;;;;;;7.80;3.70;;;;;;;3.13;99.01;98274.48;269694;1272;22434;-90
2023/02/01 15:20:15;;;;;;;9.00;4.00;;;;;;;3.01;99.48;98273.29;269669;1272;22555;-91
2023/02/01 15:26:28;;;;;;;7.80;3.80;;;;;;;2.91;99.89;98273.23;269265;1272;22550;-89
2023/02/01 15:32:32;;;;;;;7.70;4.30;;;;;;;2.83;100.00;98285.33;270350;1272;22601;-90
2023/02/01 15:38:42;;;;;;;9.30;4.10;;;;;;;2.75;100.00;98295.36;269893;1271;22491;-90
2023/02/01 15:44:45;;;;;;;12.60;6.00;;;;;;;2.68;100.00;98300.23;270948;1272;22556;-91
2023/02/01 15:50:47;;;;;;;11.20;5.40;;;;;;;2.59;100.00;98306.05;272348;1272;22404;-89
2023/02/01 15:56:55;;;;;;;14.70;6.60;;;;;;;2.51;100.00;98308.58;272834;1272;22383;-90
2023/02/01 16:03:05;;;;;;;17.60;8.20;;;;;;;2.44;100.00;98310.15;263911;1273;10002102;-90
2023/02/01 16:09:13;;;;;;;12.60;7.00;;;;;;;2.39;100.00;98316.14;269616;1272;22566;-89
2023/02/01 16:15:15;;;;;;;10.60;6.30;;;;;;;2.35;100.00;98325.98;270425;1273;25437;-89
2023/02/01 16:21:17;;;;;;;14.50;6.60;;;;;;;2.33;100.00;98327.63;272009;1272;22345;-90
2023/02/01 16:27:22;;;;;;;16.50;6.00;;;;;;;2.36;100.00;98336.11;270850;1272;22583;-88
2023/02/01 16:33:24;;;;;;;14.70;6.50;;;;;;;2.39;100.00;98343.63;270731;1272;22645;-90
2023/02/01 16:39:27;;;;;;;13.00;7.40;;;;;;;2.39;100.00;98346.77;270754;1272;22477;-90
2023/02/01 16:45:30;;;;;;;15.40;8.40;;;;;;;2.38;100.00;98353.02;272028;1272;22320;-90
2023/02/01 16:51:33;;;;;;;14.00;7.70;;;;;;;2.40;100.00;98355.46;272325;1272;22588;-89
2023/02/01 16:57:35;;;;;;;17.50;9.10;;;;;;;2.41;100.00;98357.52;271655;1272;22390;-90
2023/02/01 17:03:40;;;;;;;20.60;9.60;;;;;;;2.42;100.00;98354.40;272494;1272;23350;-92
2023/02/01 17:09:42;;;;;;;17.10;10.00;;;;;;;2.45;100.00;98351.62;270291;1267;22599;-90
2023/02/01 17:15:58;;;;;;;19.00;8.90;;;;;;;2.45;100.00;98356.17;270464;1272;22452;-90
2023/02/01 17:22:00;;;;;;;15.50;8.10;;;;;;;2.48;100.00;98360.90;271729;1272;23633;-89
2023/02/01 17:28:03;;;;;;;17.10;6.90;;;;;;;2.52;100.00;98353.63;272022;1272;22566;-90
2023/02/01 17:34:05;;;;;;;18.90;7.10;;;;;;;2.57;100.00;98352.02;272061;1272;22338;-89
2023/02/01 17:40:09;;;;;;;17.10;7.20;;;;;;;2.58;100.00;98350.21;272790;1272;23068;-90
2023/02/01 17:46:17;;;;;;;14.60;7.40;;;;;;;2.54;100.00;98351.85;272653;1273;22343;-90
2023/02/01 17:52:19;;;;;;;19.20;6.70;;;;;;;2.53;100.00;98349.17;272862;1272;22402;-92
2023/02/01 17:58:21;;;;;;;14.20;6.50;;;;;;;2.54;100.00;98351.30;271896;1272;23646;-90
2023/02/01 18:04:23;;;;;;;13.70;6.10;;;;;;;2.54;100.00;98354.33;272769;1273;22224;-90
2023/02/01 18:10:25;;;;;;;15.20;5.70;;;;;;;2.54;100.00;98349.68;271533;1272;22489;-90
2023/02/01 18:16:29;;;;;;;16.00;6.20;;;;;;;2.50;100.00;98351.02;270763;1272;22557;-90
2023/02/01 18:22:32;;;;;;;19.10;7.90;;;;;;;2.42;100.00;98346.95;272602;1271;22683;-91
2023/02/01 18:28:34;;;;;;;16.10;7.60;;;;;;;2.32;100.00;98343.08;271714;1272;22360;-90
2023/02/01 18:34:36;;;;;;;18.80;8.20;;;;;;;2.27;100.00;98347.10;272469;1272;22687;-90
2023/02/01 18:40:47;;;;;;;18.20;6.80;;;;;;;2.25;100.00;98354.05;271576;1272;22653;-91
2023/02/01 18:46:49;;;;;;;16.00;7.00;;;;;;;2.20;100.00;98339.67;270552;1272;24270;-89
2023/02/01 18:52:53;;;;;;;15.70;6.10;;;;;;;2.13;100.00;98334.82;271191;1272;22402;-91
2023/02/01 18:58:56;;;;;;;13.80;5.90;;;;;;;2.13;100.00;98336.05;271783;1273;22575;-88
2023/02/01 19:04:58;;;;;;;18.50;6.80;;;;;;;2.16;100.00;98327.73;271585;1272;25281;-89
2023/02/01 19:11:04;;;;;;;16.80;6.80;;;;;;;2.18;100.00;98317.62;271856;1273;23772;-89
2023/02/01 19:17:06;;;;;;;18.30;7.40;;;;;;;2.13;100.00;98302.27;269856;1272;23326;-89
2023/02/01 19:23:08;;;;;;;13.70;6.30;;;;;;;2.09;100.00;98291.36;272302;1270;23136;-90
2023/02/01 19:29:10;;;;;;;19.00;8.00;;;;;;;2.10;100.00;98290.27;272551;1273;22221;-89
2023/02/01 19:35:18;;;;;;;20.00;7.70;;;;;;;2.10;100.00;98289.29;272684;1272;22337;-90
2023/02/01 19:41:20;;;;;;;17.60;8.30;;;;;;;2.07;100.00;98291.10;272802;1260;23432;-89
2023/02/01 19:47:21;;;;;;;19.20;8.30;;;;;;;2.07;100.00;98297.58;271602;1267;22290;-90
2023/02/01 19:53:26;;;;;;;21.90;8.90;;;;;;;2.09;100.00;98296.41;270019;1273;22534;-88
2023/02/01 19:59:28;;;;;;;14.50;6.00;;;;;;;2.08;100.00;98293.46;271318;1272;22349;-90
2023/02/01 20:05:30;;;;;;;9.60;4.60;;;;;;;2.07;100.00;98280.33;271956;1272;23368;-90
2023/02/01 20:11:32;;;;;;;14.50;5.80;;;;;;;2.09;100.00;98277.30;272963;1272;22437;-90
2023/02/01 20:17:34;;;;;;;17.10;8.10;;;;;;;2.10;100.00;98268.70;272160;1272;118568;-89
2023/02/01 20:23:36;;;;;;;18.00;9.40;;;;;;;2.13;100.00;98271.27;271017;1272;22274;-89
2023/02/01 20:29:40;;;;;;;14.40;8.10;;;;;;;2.16;100.00;98268.20;272957;1272;22228;-91
2023/02/01 20:35:45;;;;;;;20.00;9.70;;;;;;;2.20;100.00;98269.64;272542;1272;22574;-89
2023/02/01 20:41:47;;;;;;;19.70;9.10;;;;;;;2.30;100.00;98265.86;271323;1272;22575;-90
2023/02/01 20:47:50;;;;;;;18.60;8.30;;;;;;;2.36;100.00;98256.12;272345;1271;22345;-91
2023/02/01 20:53:52;;;;;;;16.10;8.60;;;;;;;2.43;100.00;98241.13;270502;1272;22585;-90
2023/02/01 20:59:54;;;;;;;18.80;7.60;;;;;;;2.47;100.00;98235.63;270106;1271;22535;-91
2023/02/01 21:05:57;;;;;;;16.80;7.30;;;;;;;2.53;100.00;98231.23;270494;1272;23272;-91
2023/02/01 21:11:59;;;;;;;10.90;5.50;;;;;;;2.63;100.00;98216.77;270788;1272;22304;-92
2023/02/01 21:18:07;;;;;;;14.00;5.00;;;;;;;2.69;100.00;98202.67;270555;1272;22409;-91
2023/02/01 21:24:12;;;;;;;11.80;5.60;;;;;;;2.76;100.00;98192.92;271097;1272;22462;-91
2023/02/01 21:30:17;;;;;;;9.80;3.90;;;;;;;2.81;100.00;98167.34;272616;1272;22336;-91
2023/02/01 21:36:19;;;;;;;7.60;4.00;;;;;;;2.81;100.00;98168.03;272877;1272;22334;-90
2023/02/01 21:42:23;;;;;;;11.30;3.70;;;;;;;2.82;100.00;98158.64;270783;1271;22551;-91
2023/02/01 21:48:25;;;;;;;8.20;4.20;;;;;;;2.84;100.00;98167.44;269611;1272;22579;-90
2023/02/01 21:54:26;;;;;;;11.80;4.20;;;;;;;2.85;100.00;98178.73;269325;1272;22651;-90
2023/02/01 22:00:28;;;;;;;7.90;2.70;;;;;;;2.73;100.00;98175.99;269020;1272;22553;-91
2023/02/01 22:06:33;;;;;;;7.20;4.00;;;;;;;2.57;100.00;98173.21;269249;1272;22539;-91
2023/02/01 22:12:37;;;;;;;11.20;5.70;;;;;;;2.44;100.00;98152.91;268689;1272;24409;-90
2023/02/01 22:18:39;;;;;;;14.70;5.90;;;;;;;2.32;100.00;98152.97;268688;1272;22617;-91
2023/02/01 22:24:44;;;;;;;15.70;5.50;;;;;;;2.26;100.00;98154.69;268274;1272;22583;-91
2023/02/01 22:30:46;;;;;;;9.20;4.40;;;;;;;2.17;100.00;98142.71;268426;1272;22328;-91
2023/02/01 22:36:49;;;;;;;7.70;3.70;;;;;;;2.11;100.00;98133.05;269274;1272;23899;-90
2023/02/01 22:42:51;;;;;;;7.60;3.50;;;;;;;2.06;100.00;98127.02;272429;1272;22199;-91
2023/02/01 22:48:53;;;;;;;8.20;4.20;;;;;;;2.03;100.00;98125.45;269769;1272;25465;-91
2023/02/01 22:54:54;;;;;;;12.40;5.30;;;;;;;1.99;100.00;98120.17;269345;1271;22543;-89
2023/02/01 23:01:07;;;;;;;19.00;7.90;;;;;;;1.96;100.00;98114.31;269385;1272;22565;-90
2023/02/01 23:07:09;;;;;;;8.20;4.10;;;;;;;1.95;100.00;98105.48;269411;1272;22542;-89
2023/02/01 23:13:11;;;;;;;10.90;3.10;;;;;;;2.03;100.00;98102.08;271424;1272;22345;-91
2023/02/01 23:19:13;;;;;;;6.40;2.90;;;;;;;2.13;100.00;98100.85;272939;1272;22336;-90
2023/02/01 23:25:17;;;;;;;9.80;3.60;;;;;;;2.18;100.00;98097.84;270187;1272;24359;-90
2023/02/01 23:31:18;;;;;;;11.00;4.50;;;;;;;2.25;100.00;98086.83;268648;1272;22633;-90
2023/02/01 23:37:20;;;;;;;9.30;5.10;;;;;;;2.26;100.00;98083.87;271745;1272;23565;-89
2023/02/01 23:49:44;;;;;;;11.50;4.30;;;;;;;2.37;100.00;98097.86;268729;1272;22579;-90
2023/02/01 23:55:46;;;;;;;8.20;4.80;;;;;;;2.44;100.00;98107.61;269283;1272;22567;-88
